createdAt,value
2018-07-28T00:00:13.094Z,7.97
2018-07-28T00:02:44.279Z,7.90
2018-07-28T00:05:15.899Z,7.50
2018-07-28T00:07:47.904Z,8.27
2018-07-28T00:10:19.664Z,7.93
2018-07-28T00:12:51.025Z,8.17
2018-07-28T00:15:23.330Z,8.50
2018-07-28T00:17:55.155Z,9.37
2018-07-28T00:20:27.061Z,8.30
2018-07-28T00:22:58.313Z,8.80
2018-07-28T00:25:33.531Z,8.93
2018-07-28T00:28:05.306Z,8.30
2018-07-28T00:30:37.097Z,8.43
2018-07-28T00:33:08.367Z,9.40
2018-07-28T00:35:40.286Z,8.97
2018-07-28T00:38:12.145Z,9.23
2018-07-28T00:40:44.138Z,8.47
2018-07-28T00:43:16.208Z,9.87
2018-07-28T00:45:48.253Z,9.03
2018-07-28T00:48:19.952Z,8.70
2018-07-28T00:50:51.804Z,9.47
2018-07-28T00:53:24.838Z,9.43
2018-07-28T00:55:57.182Z,9.30
2018-07-28T00:58:28.752Z,9.13
2018-07-28T01:01:00.441Z,9.73
2018-07-28T01:03:32.432Z,9.17
2018-07-28T01:06:04.389Z,9.53
2018-07-28T01:08:36.128Z,9.60
2018-07-28T01:11:08.073Z,8.90
2018-07-28T01:13:39.125Z,8.80
2018-07-28T01:16:11.217Z,9.27
2018-07-28T01:18:43.634Z,8.10
2018-07-28T01:21:16.379Z,8.83
2018-07-28T01:23:48.234Z,8.93
2018-07-28T01:26:20.009Z,9.60
2018-07-28T01:28:55.764Z,9.27
2018-07-28T01:31:28.571Z,9.00
2018-07-28T01:33:59.707Z,8.80
2018-07-28T01:36:31.454Z,8.97
2018-07-28T01:39:03.493Z,8.80
2018-07-28T01:41:35.382Z,8.30
2018-07-28T01:44:06.837Z,8.60
2018-07-28T01:46:37.968Z,9.20
2018-07-28T01:49:09.303Z,8.67
2018-07-28T01:51:40.934Z,9.30
2018-07-28T01:54:12.855Z,8.70
2018-07-28T01:56:45.162Z,8.80
2018-07-28T01:59:17.253Z,8.97
2018-07-28T02:01:48.990Z,9.80
2018-07-28T02:04:20.626Z,8.73
2018-07-28T02:06:52.580Z,9.33
2018-07-28T02:09:24.420Z,9.80
2018-07-28T02:11:56.285Z,9.53
2018-07-28T02:14:28.887Z,9.83
2018-07-28T02:17:00.755Z,9.17
2018-07-28T02:19:31.969Z,8.57
2018-07-28T02:22:04.046Z,8.70
2018-07-28T02:24:36.682Z,8.67
2018-07-28T02:27:08.023Z,9.03
2018-07-28T02:29:39.287Z,9.03
2018-07-28T02:32:10.946Z,9.00
2018-07-28T02:34:43.404Z,9.07
2018-07-28T02:37:15.387Z,9.10
2018-07-28T02:39:47.678Z,9.80
2018-07-28T02:42:19.467Z,10.23
2018-07-28T02:44:51.337Z,9.30
2018-07-28T02:47:24.033Z,9.47
2018-07-28T02:49:56.363Z,9.00
2018-07-28T02:52:27.674Z,9.23
2018-07-28T02:54:59.402Z,8.50
2018-07-28T02:57:31.425Z,8.37
2018-07-28T03:00:04.129Z,8.50
2018-07-28T03:02:35.975Z,9.37
2018-07-28T03:05:09.027Z,8.57
2018-07-28T03:07:41.201Z,8.60
2018-07-28T03:10:13.023Z,8.93
2018-07-28T03:12:44.852Z,9.17
2018-07-28T03:15:35.031Z,9.30
2018-07-28T03:18:08.504Z,9.30
2018-07-28T03:20:40.276Z,8.77
2018-07-28T03:23:11.914Z,8.03
2018-07-28T03:25:44.470Z,8.97
2018-07-28T03:28:16.483Z,9.10
2018-07-28T03:30:48.799Z,8.53
2018-07-28T03:33:20.560Z,9.60
2018-07-28T03:35:52.898Z,10.17
2018-07-28T03:38:24.197Z,9.50
2018-07-28T03:40:55.956Z,14.60
2018-07-28T03:43:30.895Z,13.27
2018-07-28T03:46:03.384Z,10.00
2018-07-28T03:48:34.853Z,10.73
2018-07-28T03:51:06.345Z,11.47
2018-07-28T03:53:38.226Z,13.10
2018-07-28T03:56:09.352Z,12.53
2018-07-28T03:58:40.363Z,13.63
2018-07-28T04:01:12.526Z,13.03
2018-07-28T04:03:43.655Z,13.23
2018-07-28T04:06:14.936Z,13.67
2018-07-28T04:08:46.125Z,14.00
2018-07-28T04:11:17.745Z,14.20
2018-07-28T04:13:49.499Z,13.87
2018-07-28T04:16:21.565Z,14.80
2018-07-28T04:18:53.509Z,14.47
2018-07-28T04:21:24.736Z,14.30
2018-07-28T04:23:56.382Z,14.27
2018-07-28T04:26:27.813Z,12.97
2018-07-28T04:28:58.789Z,14.33
2018-07-28T04:31:30.635Z,14.93
2018-07-28T04:34:02.718Z,13.87
2018-07-28T04:36:35.375Z,15.83
2018-07-28T04:39:11.100Z,14.83
2018-07-28T04:41:43.759Z,16.13
2018-07-28T04:44:14.996Z,15.33
2018-07-28T04:46:46.733Z,17.07
2018-07-28T04:49:18.949Z,16.47
2018-07-28T04:51:50.905Z,15.50
2018-07-28T04:54:23.113Z,15.03
2018-07-28T04:56:55.088Z,15.63
2018-07-28T04:59:27.378Z,14.60
2018-07-28T05:01:59.506Z,14.90
2018-07-28T05:04:31.730Z,14.50
2018-07-28T05:07:03.550Z,15.53
2018-07-28T05:09:34.737Z,14.60
2018-07-28T05:12:07.064Z,14.47
2018-07-28T05:14:38.617Z,13.57
2018-07-28T05:17:10.357Z,13.43
2018-07-28T05:19:42.577Z,14.10
2018-07-28T05:22:14.671Z,14.73
2018-07-28T05:24:46.615Z,13.33
2018-07-28T05:27:18.832Z,14.70
2018-07-28T05:29:50.275Z,14.43
2018-07-28T05:32:23.398Z,13.20
2018-07-28T05:34:55.685Z,14.50
2018-07-28T05:37:28.441Z,13.00
2018-07-28T05:40:00.506Z,14.50
2018-07-28T05:42:32.911Z,13.23
2018-07-28T05:45:04.446Z,13.67
2018-07-28T05:47:36.743Z,13.60
2018-07-28T05:50:10.316Z,12.07
2018-07-28T05:52:42.528Z,12.80
2018-07-28T05:55:14.385Z,13.57
2018-07-28T05:57:46.596Z,13.60
2018-07-28T06:00:18.422Z,14.23
2018-07-28T06:02:50.699Z,13.13
2018-07-28T06:05:23.046Z,12.93
2018-07-28T06:07:55.411Z,12.67
2018-07-28T06:10:27.851Z,13.77
2018-07-28T06:13:00.102Z,12.67
2018-07-28T06:15:32.396Z,12.20
2018-07-28T06:18:04.802Z,11.93
2018-07-28T06:20:37.134Z,11.80
2018-07-28T06:23:09.518Z,11.63
2018-07-28T06:25:41.876Z,11.77
2018-07-28T06:28:14.284Z,11.93
2018-07-28T06:30:46.547Z,11.33
2018-07-28T06:33:18.284Z,12.13
2018-07-28T06:35:50.318Z,12.23
2018-07-28T06:38:22.811Z,10.80
2018-07-28T06:40:54.863Z,11.00
2018-07-28T06:43:26.864Z,10.80
2018-07-28T06:45:59.197Z,12.00
2018-07-28T06:48:31.193Z,11.40
2018-07-28T06:51:02.800Z,11.70
2018-07-28T06:53:35.004Z,11.23
2018-07-28T06:56:07.072Z,10.77
2018-07-28T06:58:39.839Z,11.07
2018-07-28T07:01:12.277Z,11.87
2018-07-28T07:03:44.012Z,11.33
2018-07-28T07:06:16.255Z,11.70
2018-07-28T07:08:48.617Z,11.07
2018-07-28T07:11:20.820Z,11.30
2018-07-28T07:13:52.842Z,10.60
2018-07-28T07:16:26.222Z,11.43
2018-07-28T07:18:57.971Z,11.27
2018-07-28T07:21:30.416Z,11.27
2018-07-28T07:24:02.544Z,11.90
2018-07-28T07:26:34.947Z,11.20
2018-07-28T07:29:07.820Z,10.87
2018-07-28T07:31:40.025Z,11.40
2018-07-28T07:34:12.433Z,10.87
2018-07-28T07:36:44.663Z,10.80
2018-07-28T07:39:16.824Z,10.33
2018-07-28T07:41:49.072Z,10.17
2018-07-28T07:44:21.095Z,10.73
2018-07-28T07:46:53.933Z,10.90
2018-07-28T07:49:25.608Z,10.90
2018-07-28T07:51:57.667Z,10.90
2018-07-28T07:54:29.775Z,11.60
2018-07-28T07:57:02.147Z,11.07
2018-07-28T07:59:33.610Z,11.10
2018-07-28T08:02:05.903Z,11.17
2018-07-28T08:04:37.561Z,10.50
2018-07-28T08:07:09.758Z,10.13
2018-07-28T08:09:41.900Z,11.30
2018-07-28T08:12:13.571Z,11.77
2018-07-28T08:14:46.502Z,10.60
2018-07-28T08:17:18.899Z,11.40
2018-07-28T08:19:51.104Z,11.57
2018-07-28T08:22:23.364Z,11.97
2018-07-28T08:24:55.616Z,10.90
2018-07-28T08:27:28.089Z,11.00
2018-07-28T08:30:01.048Z,11.60
2018-07-28T08:32:33.257Z,11.70
2018-07-28T08:35:06.739Z,11.43
2018-07-28T08:37:39.556Z,11.43
2018-07-28T08:40:12.765Z,11.97
2018-07-28T08:42:45.013Z,12.30
2018-07-28T08:45:16.986Z,12.50
2018-07-28T08:47:48.576Z,13.10
2018-07-28T08:50:20.745Z,12.00
2018-07-28T08:52:52.981Z,11.63
2018-07-28T08:55:25.127Z,12.07
2018-07-28T08:57:57.503Z,12.77
2018-07-28T09:00:29.450Z,12.30
2018-07-28T09:03:01.690Z,11.77
2018-07-28T09:05:33.737Z,12.00
2018-07-28T09:08:06.037Z,12.27
2018-07-28T09:10:38.259Z,12.90
2018-07-28T09:13:10.748Z,12.20
2018-07-28T09:15:42.287Z,11.37
2018-07-28T09:18:14.421Z,11.47
2018-07-28T09:20:46.966Z,11.90
2018-07-28T09:23:19.711Z,13.00
2018-07-28T09:25:52.045Z,12.10
2018-07-28T09:28:24.207Z,12.23
2018-07-28T09:30:56.284Z,11.87
2018-07-28T09:33:28.775Z,11.93
2018-07-28T09:36:01.455Z,11.27
2018-07-28T09:38:33.902Z,11.70
2018-07-28T09:41:06.204Z,11.43
2018-07-28T09:43:38.268Z,11.17
2018-07-28T09:46:10.468Z,11.60
2018-07-28T09:48:42.917Z,11.80
2018-07-28T09:51:15.174Z,9.87
2018-07-28T09:53:47.976Z,10.67
2018-07-28T09:56:20.731Z,10.57
2018-07-28T09:58:53.044Z,10.50
2018-07-28T10:01:25.411Z,11.83
2018-07-28T10:03:58.070Z,10.27
2018-07-28T10:06:30.645Z,10.40
2018-07-28T10:09:02.380Z,9.97
2018-07-28T10:11:34.373Z,10.60
2018-07-28T10:14:06.820Z,10.20
2018-07-28T10:16:38.382Z,9.03
2018-07-28T10:19:10.386Z,9.03
2018-07-28T10:21:42.819Z,10.37
2018-07-28T10:24:14.942Z,10.10
2018-07-28T10:29:47.596Z,9.77
2018-07-28T10:32:19.640Z,9.07
2018-07-28T10:34:51.843Z,8.87
2018-07-28T10:37:24.361Z,10.00
2018-07-28T10:39:56.645Z,11.03
2018-07-28T10:42:28.877Z,8.17
2018-07-28T10:45:01.780Z,9.80
2018-07-28T10:47:33.755Z,8.93
2018-07-28T10:50:05.848Z,10.27
2018-07-28T10:52:38.198Z,10.53
2018-07-28T10:55:10.528Z,10.10
2018-07-28T10:57:42.543Z,10.43
2018-07-28T11:00:14.556Z,10.17
2018-07-28T11:02:47.190Z,9.27
2018-07-28T11:05:19.913Z,8.70
2018-07-28T11:07:53.459Z,8.90
2018-07-28T11:10:25.842Z,9.30
2018-07-28T11:12:58.202Z,10.70
2018-07-28T11:15:30.396Z,10.97
2018-07-28T11:18:02.124Z,10.93
2018-07-28T11:20:34.702Z,10.23
2018-07-28T11:23:07.614Z,10.57
2018-07-28T11:25:39.783Z,10.47
2018-07-28T11:28:12.397Z,9.23
2018-07-28T11:30:44.766Z,10.00
2018-07-28T11:33:32.963Z,10.10
2018-07-28T11:36:21.153Z,10.70
2018-07-28T11:39:09.616Z,8.90
2018-07-28T11:41:57.453Z,10.00
2018-07-28T11:44:45.705Z,9.53
2018-07-28T11:47:18.183Z,9.53
2018-07-28T11:49:51.475Z,9.33
2018-07-28T11:52:23.249Z,8.70
2018-07-28T11:54:55.569Z,9.50
2018-07-28T11:57:28.031Z,10.17
2018-07-28T12:00:00.195Z,10.57
2018-07-28T12:02:33.422Z,10.47
2018-07-28T12:05:05.951Z,10.47
2018-07-28T12:07:38.397Z,9.93
2018-07-28T12:10:11.340Z,10.10
2018-07-28T12:12:43.491Z,9.33
2018-07-28T12:15:17.987Z,9.87
2018-07-28T12:17:50.389Z,9.53
2018-07-28T12:20:22.639Z,10.00
2018-07-28T12:22:54.360Z,10.13
2018-07-28T12:25:26.588Z,9.87
2018-07-28T12:27:58.744Z,9.47
2018-07-28T12:30:31.488Z,9.10
2018-07-28T12:33:03.821Z,9.47
2018-07-28T12:35:35.757Z,9.20
2018-07-28T12:38:07.549Z,8.37
2018-07-28T12:40:39.598Z,8.13
2018-07-28T12:43:11.580Z,10.43
2018-07-28T12:45:43.582Z,10.33
2018-07-28T12:48:15.726Z,9.60
2018-07-28T12:50:47.492Z,9.73
2018-07-28T12:53:19.585Z,10.53
2018-07-28T12:55:52.965Z,9.40
2018-07-28T12:58:24.707Z,8.87
2018-07-28T13:00:56.831Z,9.30
2018-07-28T13:03:29.393Z,9.17
2018-07-28T13:06:01.437Z,8.60
2018-07-28T13:08:35.105Z,9.13
2018-07-28T13:11:07.607Z,9.00
2018-07-28T13:13:39.629Z,9.43
2018-07-28T13:16:12.165Z,10.40
2018-07-28T13:18:44.627Z,10.93
2018-07-28T13:21:16.592Z,17.43
2018-07-28T13:23:49.163Z,11.70
2018-07-28T13:26:21.707Z,10.73
2018-07-28T13:28:53.882Z,11.03
2018-07-28T13:31:25.918Z,10.43
2018-07-28T13:33:58.567Z,10.90
2018-07-28T13:36:30.766Z,9.83
2018-07-28T13:39:02.986Z,10.10
2018-07-28T13:41:36.488Z,9.93
2018-07-28T13:44:08.650Z,10.00
2018-07-28T13:46:40.509Z,10.50
2018-07-28T13:49:12.207Z,10.03
2018-07-28T13:51:44.340Z,10.33
2018-07-28T13:54:16.619Z,9.47
2018-07-28T13:56:49.162Z,10.33
2018-07-28T13:59:21.361Z,9.37
2018-07-28T14:01:53.340Z,10.00
2018-07-28T14:04:25.899Z,10.00
2018-07-28T14:06:58.648Z,9.83
2018-07-28T14:09:30.068Z,10.70
2018-07-28T14:12:02.715Z,10.50
2018-07-28T14:14:34.985Z,10.53
2018-07-28T14:17:07.203Z,10.87
2018-07-28T14:19:40.384Z,9.73
2018-07-28T14:22:12.343Z,10.20
2018-07-28T14:24:44.724Z,9.63
2018-07-28T14:27:16.787Z,9.77
2018-07-28T14:29:48.955Z,9.50
2018-07-28T14:32:21.334Z,9.00
2018-07-28T14:34:54.949Z,9.50
2018-07-28T14:37:28.557Z,9.60
2018-07-28T14:40:00.142Z,8.73
2018-07-28T14:42:32.450Z,9.73
2018-07-28T14:45:06.426Z,9.87
2018-07-28T14:47:39.455Z,10.67
2018-07-28T14:50:11.885Z,10.47
2018-07-28T14:52:43.864Z,9.43
2018-07-28T14:55:16.017Z,9.87
2018-07-28T14:57:48.417Z,10.03
2018-07-28T15:00:20.805Z,10.50
2018-07-28T15:02:53.174Z,10.00
2018-07-28T15:05:26.036Z,9.87
2018-07-28T15:07:58.257Z,9.60
2018-07-28T15:10:30.607Z,9.93
2018-07-28T15:13:02.831Z,9.53
2018-07-28T15:15:34.796Z,9.00
2018-07-28T15:18:06.737Z,9.23
2018-07-28T15:20:39.065Z,9.63
2018-07-28T15:23:11.245Z,9.13
2018-07-28T15:25:43.595Z,10.17
2018-07-28T15:28:16.350Z,9.20
2018-07-28T15:30:48.458Z,9.23
2018-07-28T15:33:20.711Z,9.77
2018-07-28T15:35:52.967Z,9.23
2018-07-28T15:38:25.684Z,9.77
2018-07-28T15:40:59.137Z,9.80
2018-07-28T15:43:31.209Z,10.70
2018-07-28T15:46:03.338Z,9.80
2018-07-28T15:48:36.368Z,10.60
2018-07-28T15:51:09.137Z,9.83
2018-07-28T15:53:41.795Z,9.57
2018-07-28T15:56:14.280Z,9.50
2018-07-28T15:58:47.057Z,9.33
2018-07-28T16:01:19.804Z,9.27
2018-07-28T16:03:52.034Z,9.90
2018-07-28T16:06:25.139Z,9.83
2018-07-28T16:08:57.998Z,9.97
2018-07-28T16:11:30.546Z,10.80
2018-07-28T16:14:03.139Z,12.03
2018-07-28T16:16:35.363Z,11.87
2018-07-28T16:19:08.062Z,10.33
2018-07-28T16:21:40.832Z,9.00
2018-07-28T16:24:13.141Z,8.70
2018-07-28T16:26:45.979Z,9.43
2018-07-28T16:29:19.389Z,10.07
2018-07-28T16:31:52.007Z,9.87
2018-07-28T16:34:25.243Z,9.87
2018-07-28T16:36:58.555Z,9.50
2018-07-28T16:39:31.130Z,10.17
2018-07-28T16:42:03.282Z,10.70
2018-07-28T16:44:35.691Z,10.27
2018-07-28T16:47:08.739Z,10.90
2018-07-28T16:49:41.392Z,10.33
2018-07-28T16:52:14.287Z,10.80
2018-07-28T16:54:46.799Z,9.80
2018-07-28T16:57:18.798Z,10.03
2018-07-28T16:59:50.989Z,10.20
2018-07-28T17:02:23.476Z,9.83
2018-07-28T17:04:56.108Z,10.73
2018-07-28T17:07:28.460Z,9.43
2018-07-28T17:10:01.091Z,9.47
2018-07-28T17:12:33.573Z,9.07
2018-07-28T17:15:06.139Z,9.80
2018-07-28T17:17:39.129Z,8.90
2018-07-28T17:20:11.962Z,8.43
2018-07-28T17:22:44.663Z,9.00
2018-07-28T17:25:16.452Z,9.17
2018-07-28T17:27:49.372Z,9.23
2018-07-28T17:30:25.511Z,9.80
2018-07-28T17:32:58.283Z,10.63
2018-07-28T17:35:30.946Z,11.37
2018-07-28T17:38:03.451Z,13.20
2018-07-28T17:40:36.261Z,10.70
2018-07-28T17:43:08.452Z,9.67
2018-07-28T17:45:40.933Z,9.07
2018-07-28T17:48:13.604Z,10.87
2018-07-28T17:50:46.296Z,10.00
2018-07-28T17:53:18.915Z,23.33
2018-07-28T17:55:50.623Z,11.50
2018-07-28T17:58:23.007Z,11.40
2018-07-28T18:00:55.686Z,11.40
2018-07-28T18:03:27.692Z,10.93
2018-07-28T18:06:00.364Z,12.57
2018-07-28T18:08:32.913Z,10.80
2018-07-28T18:11:05.654Z,10.93
2018-07-28T18:13:38.165Z,11.03
2018-07-28T18:16:10.564Z,11.83
2018-07-28T18:18:44.544Z,12.17
2018-07-28T18:21:16.856Z,12.37
2018-07-28T18:23:50.194Z,11.80
2018-07-28T18:26:22.502Z,10.40
2018-07-28T18:28:54.435Z,11.73
2018-07-28T18:31:26.869Z,13.07
2018-07-28T18:33:59.382Z,12.33
2018-07-28T18:36:31.829Z,11.17
2018-07-28T18:39:05.663Z,10.17
2018-07-28T18:41:39.049Z,10.00
2018-07-28T18:44:12.142Z,9.70
2018-07-28T18:46:45.085Z,10.00
2018-07-28T18:49:18.255Z,9.70
2018-07-28T18:51:51.293Z,10.53
2018-07-28T18:54:23.328Z,11.40
2018-07-28T18:56:56.504Z,9.90
2018-07-28T18:59:29.584Z,9.47
2018-07-28T19:02:02.589Z,9.77
2018-07-28T19:04:35.447Z,10.87
2018-07-28T19:07:08.134Z,11.23
2018-07-28T19:09:45.493Z,8.83
2018-07-28T19:12:19.247Z,9.17
2018-07-28T19:14:52.997Z,9.50
2018-07-28T19:17:29.766Z,8.77
2018-07-28T19:20:02.035Z,8.33
2018-07-28T19:22:39.497Z,9.30
2018-07-28T19:25:12.046Z,9.63
2018-07-28T19:27:50.893Z,10.00
2018-07-28T19:30:23.867Z,9.40
2018-07-28T19:32:56.696Z,10.77
2018-07-28T19:35:33.790Z,9.47
2018-07-28T19:38:07.480Z,10.07
2018-07-28T19:40:40.525Z,10.43
2018-07-28T19:43:14.262Z,9.60
2018-07-28T19:45:46.856Z,9.80
2018-07-28T19:48:19.785Z,9.43
2018-07-28T19:50:53.223Z,10.10
2018-07-28T19:53:27.034Z,9.87
2018-07-28T19:55:59.484Z,9.47
2018-07-28T19:58:32.585Z,9.40
2018-07-28T20:01:06.383Z,9.20
2018-07-28T20:03:38.894Z,9.20
2018-07-28T20:06:11.426Z,9.37
2018-07-28T20:08:43.336Z,9.83
2018-07-28T20:11:15.893Z,9.90
2018-07-28T20:13:47.893Z,9.33
2018-07-28T20:16:20.496Z,10.90
2018-07-28T20:18:53.860Z,10.67
2018-07-28T20:21:26.276Z,10.93
2018-07-28T20:23:58.721Z,10.17
2018-07-28T20:26:31.169Z,10.47
2018-07-28T20:29:03.846Z,10.70
2018-07-28T20:31:36.511Z,10.70
2018-07-28T20:34:09.007Z,9.50
2018-07-28T20:36:41.668Z,9.90
2018-07-28T20:39:14.356Z,10.60
2018-07-28T20:41:48.035Z,10.67
2018-07-28T20:44:20.504Z,11.03
2018-07-28T20:46:52.632Z,10.43
2018-07-28T20:49:24.819Z,10.53
2018-07-28T20:51:57.517Z,10.03
2018-07-28T20:54:30.213Z,9.30
2018-07-28T20:57:02.434Z,10.20
2018-07-28T20:59:34.582Z,10.20
2018-07-28T21:02:06.996Z,11.27
2018-07-28T21:04:41.199Z,10.03
2018-07-28T21:07:13.452Z,10.43
2018-07-28T21:09:46.724Z,10.50
2018-07-28T21:12:18.864Z,10.50
2018-07-28T21:14:50.911Z,10.03
2018-07-28T21:17:22.505Z,10.30
2018-07-28T21:19:54.873Z,11.00
2018-07-28T21:22:26.596Z,10.57
2018-07-28T21:24:58.506Z,10.80
2018-07-28T21:27:30.864Z,10.27
2018-07-28T21:30:03.152Z,10.80
2018-07-28T21:32:35.208Z,11.33
2018-07-28T21:35:07.846Z,10.97
2018-07-28T21:37:40.452Z,9.97
2018-07-28T21:40:12.567Z,10.87
2018-07-28T21:42:44.720Z,10.77
2018-07-28T21:45:17.142Z,10.87
2018-07-28T21:47:49.823Z,10.20
2018-07-28T21:50:21.949Z,10.73
2018-07-28T21:52:54.166Z,10.17
2018-07-28T21:55:26.013Z,10.10
2018-07-28T21:57:58.116Z,9.77
2018-07-28T22:00:34.611Z,10.43
2018-07-28T22:03:06.843Z,10.57
2018-07-28T22:05:39.296Z,10.73
2018-07-28T22:08:11.342Z,11.03
2018-07-28T22:10:44.880Z,11.37
2018-07-28T22:13:16.246Z,11.23
2018-07-28T22:15:48.103Z,10.87
2018-07-28T22:18:20.269Z,11.23
2018-07-28T22:20:52.770Z,11.80
2018-07-28T22:23:25.868Z,11.37
2018-07-28T22:25:58.060Z,11.03
2018-07-28T22:28:30.670Z,11.53
2018-07-28T22:31:03.124Z,10.70
2018-07-28T22:33:35.253Z,11.27
2018-07-28T22:36:08.171Z,10.87
2018-07-28T22:38:40.930Z,10.87
2018-07-28T22:41:13.008Z,9.97
2018-07-28T22:43:45.455Z,10.60
2018-07-28T22:46:17.417Z,10.77
2018-07-28T22:48:49.864Z,10.60
2018-07-28T22:51:21.532Z,11.73
2018-07-28T22:53:54.408Z,10.43
2018-07-28T22:56:26.617Z,10.50
2018-07-28T22:58:58.600Z,10.73
2018-07-28T23:01:30.815Z,10.77
2018-07-28T23:04:04.222Z,10.50
2018-07-28T23:06:36.505Z,11.33
2018-07-28T23:09:11.745Z,10.27
2018-07-28T23:11:43.902Z,11.13
2018-07-28T23:14:16.001Z,10.93
2018-07-28T23:16:48.202Z,10.13
2018-07-28T23:19:20.074Z,10.80
2018-07-28T23:21:52.270Z,10.90
2018-07-28T23:24:24.794Z,10.47
2018-07-28T23:26:56.940Z,10.57
2018-07-28T23:29:29.123Z,10.27
2018-07-28T23:32:01.388Z,11.73
2018-07-28T23:34:33.864Z,11.63
2018-07-28T23:37:05.897Z,10.63
2018-07-28T23:39:37.971Z,10.13
2018-07-28T23:42:10.897Z,11.00
2018-07-28T23:44:42.991Z,10.77
2018-07-28T23:47:15.645Z,11.03
2018-07-28T23:49:47.072Z,10.60
2018-07-28T23:52:19.388Z,10.60
2018-07-28T23:54:51.558Z,10.37
2018-07-28T23:57:24.012Z,10.67
2018-07-28T23:59:55.976Z,11.70
